sensor_id;sensor_type;location;lat;lon;timestamp;pressure;altitude;pressure_sealevel;temperature;humidity
36828;BME280;22766;48.042;11.192;2023-02-11T00:00:58;96855.59;;;-4.67;100.00
36828;BME280;22766;48.042;11.192;2023-02-11T00:03:25;96853.06;;;-4.64;100.00
36828;BME280;22766;48.042;11.192;2023-02-11T00:05:57;96853.88;;;-4.62;100.00
36828;BME280;22766;48.042;11.192;2023-02-11T00:08:24;96853.91;;;-4.65;100.00
36828;BME280;22766;48.042;11.192;2023-02-11T00:10:52;96855.69;;;-4.75;100.00
36828;BME280;22766;48.042;11.192;2023-02-11T00:13:20;96855.78;;;-4.81;100.00
36828;BME280;22766;48.042;11.192;2023-02-11T00:15:47;96852.44;;;-4.86;100.00
36828;BME280;22766;48.042;11.192;2023-02-11T00:18:15;96850.00;;;-4.93;100.00
36828;BME280;22766;48.042;11.192;2023-02-11T00:20:42;96855.97;;;-5.00;100.00
36828;BME280;22766;48.042;11.192;2023-02-11T00:23:09;96856.81;;;-5.03;100.00
36828;BME280;22766;48.042;11.192;2023-02-11T00:25:41;96860.19;;;-5.04;100.00
36828;BME280;22766;48.042;11.192;2023-02-11T00:28:08;96854.22;;;-4.95;100.00
36828;BME280;22766;48.042;11.192;2023-02-11T00:30:35;96851.59;;;-4.83;100.00
36828;BME280;22766;48.042;11.192;2023-02-11T00:33:03;96847.34;;;-4.78;100.00
36828;BME280;22766;48.042;11.192;2023-02-11T00:35:31;96843.16;;;-4.79;100.00
36828;BME280;22766;48.042;11.192;2023-02-11T00:37:59;96839.88;;;-4.87;100.00
36828;BME280;22766;48.042;11.192;2023-02-11T00:40:25;96834.97;;;-4.98;100.00
36828;BME280;22766;48.042;11.192;2023-02-11T00:42:52;96838.28;;;-4.96;100.00
36828;BME280;22766;48.042;11.192;2023-02-11T00:45:19;96839.81;;;-4.81;100.00
36828;BME280;22766;48.042;11.192;2023-02-11T00:47:47;96834.06;;;-4.92;100.00
36828;BME280;22766;48.042;11.192;2023-02-11T00:50:13;96830.81;;;-5.05;100.00
36828;BME280;22766;48.042;11.192;2023-02-11T00:52:40;96835.91;;;-5.09;100.00
36828;BME280;22766;48.042;11.192;2023-02-11T00:55:07;96818.28;;;-5.09;100.00
36828;BME280;22766;48.042;11.192;2023-02-11T00:57:34;96829.94;;;-5.01;100.00
36828;BME280;22766;48.042;11.192;2023-02-11T01:00:02;96829.16;;;-5.06;100.00
36828;BME280;22766;48.042;11.192;2023-02-11T01:02:29;96829.13;;;-5.04;100.00
36828;BME280;22766;48.042;11.192;2023-02-11T01:04:56;96827.53;;;-5.13;100.00
36828;BME280;22766;48.042;11.192;2023-02-11T01:07:26;96825.97;;;-5.23;100.00
36828;BME280;22766;48.042;11.192;2023-02-11T01:09:53;96824.34;;;-5.28;100.00
36828;BME280;22766;48.042;11.192;2023-02-11T01:12:20;96817.59;;;-5.28;100.00
36828;BME280;22766;48.042;11.192;2023-02-11T01:14:46;96824.31;;;-5.30;100.00
36828;BME280;22766;48.042;11.192;2023-02-11T01:17:13;96826.88;;;-5.33;100.00
36828;BME280;22766;48.042;11.192;2023-02-11T01:19:40;96831.06;;;-5.32;100.00
36828;BME280;22766;48.042;11.192;2023-02-11T01:22:07;96835.25;;;-5.29;100.00
36828;BME280;22766;48.042;11.192;2023-02-11T01:24:34;96835.38;;;-5.41;100.00
36828;BME280;22766;48.042;11.192;2023-02-11T01:27:01;96829.56;;;-5.52;100.00
36828;BME280;22766;48.042;11.192;2023-02-11T01:29:28;96827.91;;;-5.53;100.00
36828;BME280;22766;48.042;11.192;2023-02-11T01:31:54;96826.28;;;-5.60;100.00
36828;BME280;22766;48.042;11.192;2023-02-11T01:34:24;96822.91;;;-5.59;100.00
36828;BME280;22766;48.042;11.192;2023-02-11T01:36:56;96819.50;;;-5.51;100.00
36828;BME280;22766;48.042;11.192;2023-02-11T01:39:23;96822.84;;;-5.50;100.00
36828;BME280;22766;48.042;11.192;2023-02-11T01:41:51;96820.38;;;-5.56;100.00
36828;BME280;22766;48.042;11.192;2023-02-11T01:44:30;96832.16;;;-5.58;100.00
36828;BME280;22766;48.042;11.192;2023-02-11T01:46:57;96829.56;;;-5.52;100.00
36828;BME280;22766;48.042;11.192;2023-02-11T01:49:30;96826.31;;;-5.63;100.00
36828;BME280;22766;48.042;11.192;2023-02-11T01:54:32;96823.91;;;-5.80;100.00
36828;BME280;22766;48.042;11.192;2023-02-11T01:57:23;96825.66;;;-5.88;100.00
36828;BME280;22766;48.042;11.192;2023-02-11T02:03:07;96814.81;;;-5.93;100.00
36828;BME280;22766;48.042;11.192;2023-02-11T02:05:48;96816.50;;;-5.94;100.00
36828;BME280;22766;48.042;11.192;2023-02-11T02:11:00;96812.28;;;-5.92;100.00
36828;BME280;22766;48.042;11.192;2023-02-11T02:13:32;96804.72;;;-5.90;100.00
36828;BME280;22766;48.042;11.192;2023-02-11T02:16:04;96808.13;;;-5.96;100.00
36828;BME280;22766;48.042;11.192;2023-02-11T02:27:33;96796.50;;;-6.12;100.00
36828;BME280;22766;48.042;11.192;2023-02-11T02:30:35;96799.91;;;-6.22;100.00
36828;BME280;22766;48.042;11.192;2023-02-11T02:38:47;96783.25;;;-6.35;100.00
36828;BME280;22766;48.042;11.192;2023-02-11T02:41:19;96784.94;;;-6.37;100.00
36828;BME280;22766;48.042;11.192;2023-02-11T02:43:48;96780.72;;;-6.35;100.00
36828;BME280;22766;48.042;11.192;2023-02-11T02:46:20;96771.50;;;-6.33;100.00
36828;BME280;22766;48.042;11.192;2023-02-11T02:48:48;96768.97;;;-6.27;100.00
36828;BME280;22766;48.042;11.192;2023-02-11T02:57:11;96763.06;;;-6.21;100.00
36828;BME280;22766;48.042;11.192;2023-02-11T03:08:47;96753.72;;;-6.07;100.00
36828;BME280;22766;48.042;11.192;2023-02-11T03:11:19;96747.00;;;-6.05;100.00
36828;BME280;22766;48.042;11.192;2023-02-11T03:13:49;96750.38;;;-6.06;100.00
36828;BME280;22766;48.042;11.192;2023-02-11T03:16:25;96740.28;;;-6.02;100.00
36828;BME280;22766;48.042;11.192;2023-02-11T03:19:01;96730.94;;;-5.86;100.00
36828;BME280;22766;48.042;11.192;2023-02-11T03:21:30;96733.13;;;-5.54;100.00
36828;BME280;22766;48.042;11.192;2023-02-11T03:24:05;96728.69;;;-5.28;100.00
36828;BME280;22766;48.042;11.192;2023-02-11T03:26:37;96722.63;;;-5.12;100.00
36828;BME280;22766;48.042;11.192;2023-02-11T03:29:13;96725.00;;;-5.00;100.00
36828;BME280;22766;48.042;11.192;2023-02-11T03:37:17;96715.72;;;-4.95;100.00
36828;BME280;22766;48.042;11.192;2023-02-11T03:39:50;96703.31;;;-5.10;100.00
36828;BME280;22766;48.042;11.192;2023-02-11T03:42:22;96702.59;;;-5.21;100.00
36828;BME280;22766;48.042;11.192;2023-02-11T03:44:57;96709.50;;;-5.38;100.00
36828;BME280;22766;48.042;11.192;2023-02-11T03:47:26;96704.56;;;-5.47;100.00
36828;BME280;22766;48.042;11.192;2023-02-11T03:49:56;96708.78;;;-5.52;100.00
36828;BME280;22766;48.042;11.192;2023-02-11T03:52:25;96714.44;;;-5.31;100.00
36828;BME280;22766;48.042;11.192;2023-02-11T03:54:55;96720.97;;;-5.13;100.00
36828;BME280;22766;48.042;11.192;2023-02-11T03:57:23;96728.53;;;-5.16;100.00
36828;BME280;22766;48.042;11.192;2023-02-11T03:59:55;96731.53;;;-4.84;100.00
36828;BME280;22766;48.042;11.192;2023-02-11T04:02:26;96727.19;;;-4.71;100.00
36828;BME280;22766;48.042;11.192;2023-02-11T04:04:55;96735.47;;;-4.62;100.00
36828;BME280;22766;48.042;11.192;2023-02-11T04:07:22;96733.44;;;-4.37;100.00
36828;BME280;22766;48.042;11.192;2023-02-11T04:09:52;96725.94;;;-4.42;100.00
36828;BME280;22766;48.042;11.192;2023-02-11T04:12:19;96732.06;;;-4.61;100.00
36828;BME280;22766;48.042;11.192;2023-02-11T04:14:45;96731.63;;;-4.92;100.00
36828;BME280;22766;48.042;11.192;2023-02-11T04:17:12;96733.50;;;-5.07;100.00
36828;BME280;22766;48.042;11.192;2023-02-11T04:19:39;96728.75;;;-5.34;100.00
36828;BME280;22766;48.042;11.192;2023-02-11T04:22:06;96734.03;;;-5.58;100.00
36828;BME280;22766;48.042;11.192;2023-02-11T04:24:33;96726.66;;;-5.78;100.00
36828;BME280;22766;48.042;11.192;2023-02-11T04:27:00;96727.59;;;-5.87;100.00
36828;BME280;22766;48.042;11.192;2023-02-11T04:29:27;96722.56;;;-5.85;100.00
36828;BME280;22766;48.042;11.192;2023-02-11T04:31:54;96734.19;;;-5.77;100.00
36828;BME280;22766;48.042;11.192;2023-02-11T04:34:21;96745.81;;;-5.63;100.00
36828;BME280;22766;48.042;11.192;2023-02-11T04:36:47;96758.28;;;-5.54;100.00
36828;BME280;22766;48.042;11.192;2023-02-11T04:39:14;96756.63;;;-5.54;100.00
36828;BME280;22766;48.042;11.192;2023-02-11T04:41:41;96747.41;;;-5.56;100.00
36828;BME280;22766;48.042;11.192;2023-02-11T04:44:08;96752.47;;;-5.59;100.00
36828;BME280;22766;48.042;11.192;2023-02-11T04:46:35;96746.59;;;-5.60;100.00
36828;BME280;22766;48.042;11.192;2023-02-11T04:49:02;96744.94;;;-5.61;100.00
36828;BME280;22766;48.042;11.192;2023-02-11T04:51:29;96758.41;;;-5.65;100.00
36828;BME280;22766;48.042;11.192;2023-02-11T04:53:55;96768.50;;;-5.70;100.00
36828;BME280;22766;48.042;11.192;2023-02-11T04:56:22;96770.19;;;-5.73;100.00
36828;BME280;22766;48.042;11.192;2023-02-11T04:58:49;96781.94;;;-5.74;100.00
36828;BME280;22766;48.042;11.192;2023-02-11T05:01:16;96785.31;;;-5.76;100.00
36828;BME280;22766;48.042;11.192;2023-02-11T05:03:43;96780.31;;;-5.78;100.00
36828;BME280;22766;48.042;11.192;2023-02-11T05:06:10;96787.09;;;-5.86;100.00
36828;BME280;22766;48.042;11.192;2023-02-11T05:08:39;96777.06;;;-5.89;100.00
36828;BME280;22766;48.042;11.192;2023-02-11T05:11:07;96776.25;;;-5.89;100.00
36828;BME280;22766;48.042;11.192;2023-02-11T05:13:40;96772.03;;;-5.89;100.00
36828;BME280;22766;48.042;11.192;2023-02-11T05:16:06;96772.03;;;-5.89;100.00
36828;BME280;22766;48.042;11.192;2023-02-11T05:18:36;96773.72;;;-5.91;100.00
36828;BME280;22766;48.042;11.192;2023-02-11T05:21:07;96776.22;;;-5.88;100.00
36828;BME280;22766;48.042;11.192;2023-02-11T05:23:35;96772.03;;;-5.89;100.00
36828;BME280;22766;48.042;11.192;2023-02-11T05:26:02;96765.34;;;-5.90;100.00
36828;BME280;22766;48.042;11.192;2023-02-11T05:28:29;96765.34;;;-5.90;100.00
36828;BME280;22766;48.042;11.192;2023-02-11T05:30:56;96765.31;;;-5.85;100.00
36828;BME280;22766;48.042;11.192;2023-02-11T05:33:26;96765.16;;;-5.73;100.00
36828;BME280;22766;48.042;11.192;2023-02-11T05:36:00;96763.31;;;-5.54;100.00
36828;BME280;22766;48.042;11.192;2023-02-11T05:38:27;96755.63;;;-5.38;100.00
36828;BME280;22766;48.042;11.192;2023-02-11T05:40:54;96759.69;;;-5.25;100.00
36828;BME280;22766;48.042;11.192;2023-02-11T05:43:21;96756.22;;;-5.13;100.00
36828;BME280;22766;48.042;11.192;2023-02-11T05:45:48;96756.09;;;-5.03;100.00
36828;BME280;22766;48.042;11.192;2023-02-11T05:48:16;96756.84;;;-4.95;100.00
36828;BME280;22766;48.042;11.192;2023-02-11T05:50:43;96753.41;;;-4.88;100.00
36828;BME280;22766;48.042;11.192;2023-02-11T05:53:13;96760.84;;;-4.79;100.00
36828;BME280;22766;48.042;11.192;2023-02-11T05:55:40;96760.84;;;-4.79;100.00
36828;BME280;22766;48.042;11.192;2023-02-11T05:58:07;96757.47;;;-4.76;100.00
36828;BME280;22766;48.042;11.192;2023-02-11T06:00:33;96754.91;;;-4.73;100.00
36828;BME280;22766;48.042;11.192;2023-02-11T06:03:00;96760.56;;;-4.57;100.00
36828;BME280;22766;48.042;11.192;2023-02-11T06:05:27;96756.31;;;-4.54;100.00
36828;BME280;22766;48.042;11.192;2023-02-11T06:07:54;96752.09;;;-4.50;100.00
36828;BME280;22766;48.042;11.192;2023-02-11T06:10:20;96757.97;;;-4.48;100.00
36828;BME280;22766;48.042;11.192;2023-02-11T06:12:47;96735.34;;;-4.54;100.00
36828;BME280;22766;48.042;11.192;2023-02-11T06:15:14;96724.41;;;-4.53;100.00
36828;BME280;22766;48.042;11.192;2023-02-11T06:17:41;96721.75;;;-4.44;100.00
36828;BME280;22766;48.042;11.192;2023-02-11T06:20:08;96728.31;;;-4.31;100.00
36828;BME280;22766;48.042;11.192;2023-02-11T06:22:36;96728.16;;;-4.21;100.00
36828;BME280;22766;48.042;11.192;2023-02-11T06:25:03;96723.75;;;-4.07;100.00
36828;BME280;22766;48.042;11.192;2023-02-11T06:27:30;96726.09;;;-3.96;100.00
36828;BME280;22766;48.042;11.192;2023-02-11T06:29:56;96727.66;;;-3.89;100.00
36828;BME280;22766;48.042;11.192;2023-02-11T06:32:25;96730.19;;;-3.88;100.00
36828;BME280;22766;48.042;11.192;2023-02-11T06:35:11;96731.81;;;-3.85;100.00
36828;BME280;22766;48.042;11.192;2023-02-11T06:37:38;96740.16;;;-3.80;100.00
36828;BME280;22766;48.042;11.192;2023-02-11T06:40:06;96732.53;;;-3.78;100.00
36828;BME280;22766;48.042;11.192;2023-02-11T06:42:32;96735.88;;;-3.76;100.00
36828;BME280;22766;48.042;11.192;2023-02-11T06:45:02;96743.44;;;-3.76;100.00
36828;BME280;22766;48.042;11.192;2023-02-11T06:47:31;96751.78;;;-3.71;100.00
36828;BME280;22766;48.042;11.192;2023-02-11T06:49:57;96745.84;;;-3.69;100.00
36828;BME280;22766;48.042;11.192;2023-02-11T06:52:24;96746.66;;;-3.67;100.00
36828;BME280;22766;48.042;11.192;2023-02-11T06:54:51;96753.31;;;-3.64;100.00
36828;BME280;22766;48.042;11.192;2023-02-11T06:57:17;96743.16;;;-3.60;100.00
36828;BME280;22766;48.042;11.192;2023-02-11T06:59:44;96746.44;;;-3.55;100.00
36828;BME280;22766;48.042;11.192;2023-02-11T07:02:11;96748.03;;;-3.49;100.00
36828;BME280;22766;48.042;11.192;2023-02-11T07:04:38;96745.41;;;-3.43;100.00
36828;BME280;22766;48.042;11.192;2023-02-11T07:07:05;96745.41;;;-3.43;100.00
36828;BME280;22766;48.042;11.192;2023-02-11T07:09:31;96746.97;;;-3.38;100.00
36828;BME280;22766;48.042;11.192;2023-02-11T07:11:58;96752.78;;;-3.31;100.00
36828;BME280;22766;48.042;11.192;2023-02-11T07:14:25;96756.09;;;-3.29;100.00
36828;BME280;22766;48.042;11.192;2023-02-11T07:16:55;96755.03;;;-3.16;100.00
36828;BME280;22766;48.042;11.192;2023-02-11T07:19:21;96749.09;;;-3.14;100.00
36828;BME280;22766;48.042;11.192;2023-02-11T07:21:48;96754.88;;;-3.09;100.00
36828;BME280;22766;48.042;11.192;2023-02-11T07:24:14;96751.88;;;-2.85;100.00
36828;BME280;22766;48.042;11.192;2023-02-11T07:26:41;96747.63;;;-2.83;100.00
36828;BME280;22766;48.042;11.192;2023-02-11T07:29:08;96746.88;;;-2.86;100.00
36828;BME280;22766;48.042;11.192;2023-02-11T07:31:35;96762.00;;;-2.85;100.00
36828;BME280;22766;48.042;11.192;2023-02-11T07:34:02;96766.09;;;-2.79;100.00
36828;BME280;22766;48.042;11.192;2023-02-11T07:36:30;96755.78;;;-2.68;100.00
36828;BME280;22766;48.042;11.192;2023-02-11T07:38:59;96756.63;;;-2.68;100.00
36828;BME280;22766;48.042;11.192;2023-02-11T07:41:26;96764.94;;;-2.63;100.00
36828;BME280;22766;48.042;11.192;2023-02-11T07:43:56;96745.13;;;-2.43;100.00
36828;BME280;22766;48.042;11.192;2023-02-11T07:46:25;96741.31;;;-2.62;100.00
36828;BME280;22766;48.042;11.192;2023-02-11T07:48:53;96734.97;;;-2.79;100.00
36828;BME280;22766;48.042;11.192;2023-02-11T07:53:48;96745.75;;;-2.73;100.00
36828;BME280;22766;48.042;11.192;2023-02-11T07:56:16;96741.78;;;-2.43;100.00
36828;BME280;22766;48.042;11.192;2023-02-11T07:58:44;96738.28;;;-2.38;100.00
36828;BME280;22766;48.042;11.192;2023-02-11T08:01:14;96733.72;;;-2.22;100.00
36828;BME280;22766;48.042;11.192;2023-02-11T08:03:42;96720.53;;;-1.98;100.00
36828;BME280;22766;48.042;11.192;2023-02-11T08:06:11;96739.72;;;-1.90;100.00
36828;BME280;22766;48.042;11.192;2023-02-11T08:08:38;96742.88;;;-1.80;100.00
36828;BME280;22766;48.042;11.192;2023-02-11T08:11:25;96740.72;;;-1.61;100.00
36828;BME280;22766;48.042;11.192;2023-02-11T08:13:54;96730.44;;;-1.55;100.00
36828;BME280;22766;48.042;11.192;2023-02-11T08:16:25;96719.19;;;-1.44;100.00
36828;BME280;22766;48.042;11.192;2023-02-11T08:18:56;96721.75;;;-1.45;100.00
36828;BME280;22766;48.042;11.192;2023-02-11T08:21:23;96724.00;;;-1.35;100.00
36828;BME280;22766;48.042;11.192;2023-02-11T08:23:50;96716.16;;;-1.24;100.00
36828;BME280;22766;48.042;11.192;2023-02-11T08:26:22;96725.16;;;-0.82;100.00
36828;BME280;22766;48.042;11.192;2023-02-11T08:28:51;96722.19;;;-0.68;100.00
36828;BME280;22766;48.042;11.192;2023-02-11T08:33:49;96722.16;;;-0.38;100.00
36828;BME280;22766;48.042;11.192;2023-02-11T08:36:27;96720.50;;;-0.39;97.78
36828;BME280;22766;48.042;11.192;2023-02-11T08:38:59;96721.19;;;-0.34;98.16
36828;BME280;22766;48.042;11.192;2023-02-11T08:41:44;96721.97;;;-0.32;100.00
36828;BME280;22766;48.042;11.192;2023-02-11T08:44:11;96732.25;;;-0.35;100.00
36828;BME280;22766;48.042;11.192;2023-02-11T08:46:38;96737.16;;;-0.30;100.00
36828;BME280;22766;48.042;11.192;2023-02-11T08:49:04;96738.56;;;-0.20;100.00
36828;BME280;22766;48.042;11.192;2023-02-11T08:51:31;96740.34;;;0.04;100.00
36828;BME280;22766;48.042;11.192;2023-02-11T08:53:59;96731.75;;;0.36;100.00
36828;BME280;22766;48.042;11.192;2023-02-11T08:56:27;96722.56;;;0.82;100.00
36828;BME280;22766;48.042;11.192;2023-02-11T08:58:54;96725.22;;;1.04;100.00
36828;BME280;22766;48.042;11.192;2023-02-11T09:01:25;96727.00;;;1.25;100.00
36828;BME280;22766;48.042;11.192;2023-02-11T09:03:52;96732.53;;;1.36;100.00
36828;BME280;22766;48.042;11.192;2023-02-11T09:06:20;96719.31;;;1.27;100.00
36828;BME280;22766;48.042;11.192;2023-02-11T09:08:50;96713.38;;;1.26;97.20
36828;BME280;22766;48.042;11.192;2023-02-11T09:11:19;96718.34;;;1.29;86.27
36828;BME280;22766;48.042;11.192;2023-02-11T09:13:46;96727.31;;;1.16;81.03
36828;BME280;22766;48.042;11.192;2023-02-11T09:16:24;96723.38;;;1.08;77.26
36828;BME280;22766;48.042;11.192;2023-02-11T09:18:52;96714.59;;;0.91;76.05
36828;BME280;22766;48.042;11.192;2023-02-11T09:21:19;96711.00;;;0.99;78.18
36828;BME280;22766;48.042;11.192;2023-02-11T09:23:46;96704.63;;;0.87;71.87
36828;BME280;22766;48.042;11.192;2023-02-11T09:26:17;96706.88;;;0.94;71.30
36828;BME280;22766;48.042;11.192;2023-02-11T09:28:45;96707.72;;;1.18;69.67
36828;BME280;22766;48.042;11.192;2023-02-11T09:31:14;96699.78;;;1.27;68.59
36828;BME280;22766;48.042;11.192;2023-02-11T09:33:42;96700.00;;;1.44;69.33
36828;BME280;22766;48.042;11.192;2023-02-11T09:36:15;96690.06;;;1.60;66.07
36828;BME280;22766;48.042;11.192;2023-02-11T09:38:42;96690.03;;;1.83;59.73
36828;BME280;22766;48.042;11.192;2023-02-11T09:43:51;96720.34;;;2.54;57.45
36828;BME280;22766;48.042;11.192;2023-02-11T09:46:20;96719.72;;;2.69;58.63
36828;BME280;22766;48.042;11.192;2023-02-11T09:48:51;96730.28;;;2.60;62.31
36828;BME280;22766;48.042;11.192;2023-02-11T09:51:27;96732.53;;;2.88;61.94
36828;BME280;22766;48.042;11.192;2023-02-11T09:54:02;96729.97;;;3.46;63.52
36828;BME280;22766;48.042;11.192;2023-02-11T09:56:31;96729.25;;;3.82;55.28
36828;BME280;22766;48.042;11.192;2023-02-11T09:58:58;96732.47;;;4.39;50.43
36828;BME280;22766;48.042;11.192;2023-02-11T10:04:27;96711.91;;;3.51;52.24
36828;BME280;22766;48.042;11.192;2023-02-11T10:10:09;96709.19;;;2.97;53.10
36828;BME280;22766;48.042;11.192;2023-02-11T10:18:40;96694.38;;;3.25;52.27
36828;BME280;22766;48.042;11.192;2023-02-11T10:23:59;96664.44;;;4.54;48.11
36828;BME280;22766;48.042;11.192;2023-02-11T10:26:30;96671.34;;;4.86;48.29
36828;BME280;22766;48.042;11.192;2023-02-11T10:29:00;96670.34;;;5.21;47.33
36828;BME280;22766;48.042;11.192;2023-02-11T10:31:36;96674.34;;;5.91;44.23
36828;BME280;22766;48.042;11.192;2023-02-11T10:34:09;96660.38;;;5.96;44.13
36828;BME280;22766;48.042;11.192;2023-02-11T10:36:39;96666.69;;;5.58;44.92
36828;BME280;22766;48.042;11.192;2023-02-11T10:39:21;96664.66;;;5.96;45.51
36828;BME280;22766;48.042;11.192;2023-02-11T10:42:01;96675.47;;;5.69;45.30
36828;BME280;22766;48.042;11.192;2023-02-11T10:44:33;96671.81;;;5.58;45.69
36828;BME280;22766;48.042;11.192;2023-02-11T10:47:07;96675.31;;;5.24;45.50
36828;BME280;22766;48.042;11.192;2023-02-11T10:49:40;96673.19;;;4.83;46.43
36828;BME280;22766;48.042;11.192;2023-02-11T10:54:59;96683.59;;;4.80;47.10
36828;BME280;22766;48.042;11.192;2023-02-11T10:57:40;96682.91;;;4.93;45.19
36828;BME280;22766;48.042;11.192;2023-02-11T11:00:31;96672.88;;;5.38;44.80
36828;BME280;22766;48.042;11.192;2023-02-11T11:03:00;96667.00;;;6.00;42.51
36828;BME280;22766;48.042;11.192;2023-02-11T11:05:45;96676.22;;;5.87;43.08
36828;BME280;22766;48.042;11.192;2023-02-11T11:08:12;96675.28;;;5.09;44.93
36828;BME280;22766;48.042;11.192;2023-02-11T11:10:48;96666.63;;;4.94;45.61
36828;BME280;22766;48.042;11.192;2023-02-11T11:18:35;96647.97;;;4.59;46.13
36828;BME280;22766;48.042;11.192;2023-02-11T11:21:04;96650.13;;;4.33;46.21
36828;BME280;22766;48.042;11.192;2023-02-11T11:23:35;96658.59;;;4.16;48.13
36828;BME280;22766;48.042;11.192;2023-02-11T11:26:09;96661.63;;;4.24;47.92
36828;BME280;22766;48.042;11.192;2023-02-11T11:28:59;96649.66;;;4.25;48.14
36828;BME280;22766;48.042;11.192;2023-02-11T11:33:59;96656.00;;;4.18;47.78
36828;BME280;22766;48.042;11.192;2023-02-11T11:36:37;96655.47;;;4.45;46.19
36828;BME280;22766;48.042;11.192;2023-02-11T11:41:54;96641.53;;;4.85;46.11
36828;BME280;22766;48.042;11.192;2023-02-11T11:49:49;96635.53;;;5.50;43.44
36828;BME280;22766;48.042;11.192;2023-02-11T11:55:08;96637.28;;;5.65;43.85
36828;BME280;22766;48.042;11.192;2023-02-11T11:57:39;96633.63;;;5.53;43.66
36828;BME280;22766;48.042;11.192;2023-02-11T12:00:14;96632.06;;;5.66;44.32
36828;BME280;22766;48.042;11.192;2023-02-11T12:14:14;96638.91;;;5.83;44.48
36828;BME280;22766;48.042;11.192;2023-02-11T12:22:10;96632.06;;;5.82;45.23
36828;BME280;22766;48.042;11.192;2023-02-11T12:24:55;96637.03;;;6.01;46.34
36828;BME280;22766;48.042;11.192;2023-02-11T12:27:50;96626.84;;;6.74;46.48
36828;BME280;22766;48.042;11.192;2023-02-11T12:33:19;96622.94;;;8.33;39.36
36828;BME280;22766;48.042;11.192;2023-02-11T12:36:03;96620.38;;;8.19;39.25
36828;BME280;22766;48.042;11.192;2023-02-11T12:38:47;96619.53;;;8.06;40.11
36828;BME280;22766;48.042;11.192;2023-02-11T12:44:51;96608.91;;;8.64;37.64
36828;BME280;22766;48.042;11.192;2023-02-11T12:52:47;96602.47;;;11.75;33.14
36828;BME280;22766;48.042;11.192;2023-02-11T12:55:22;96581.47;;;13.04;33.59
36828;BME280;22766;48.042;11.192;2023-02-11T12:57:53;96586.16;;;12.17;30.60
36828;BME280;22766;48.042;11.192;2023-02-11T13:00:45;96577.38;;;11.97;30.93
36828;BME280;22766;48.042;11.192;2023-02-11T13:03:33;96579.66;;;10.34;33.05
36828;BME280;22766;48.042;11.192;2023-02-11T13:06:08;96579.97;;;9.83;33.59
36828;BME280;22766;48.042;11.192;2023-02-11T13:08:44;96580.28;;;10.14;34.78
36828;BME280;22766;48.042;11.192;2023-02-11T13:11:22;96580.72;;;11.44;32.37
36828;BME280;22766;48.042;11.192;2023-02-11T13:14:12;96575.53;;;12.20;32.19
36828;BME280;22766;48.042;11.192;2023-02-11T13:16:45;96567.41;;;13.77;31.99
36828;BME280;22766;48.042;11.192;2023-02-11T13:19:28;96572.00;;;13.54;29.42
36828;BME280;22766;48.042;11.192;2023-02-11T13:22:23;96566.81;;;14.32;29.42
36828;BME280;22766;48.042;11.192;2023-02-11T13:25:02;96564.44;;;15.33;27.67
36828;BME280;22766;48.042;11.192;2023-02-11T13:28:15;96558.59;;;15.21;27.26
36828;BME280;22766;48.042;11.192;2023-02-11T13:30:45;96568.75;;;15.78;25.82
36828;BME280;22766;48.042;11.192;2023-02-11T13:33:19;96557.38;;;15.79;26.09
36828;BME280;22766;48.042;11.192;2023-02-11T13:36:08;96564.50;;;15.50;26.42
36828;BME280;22766;48.042;11.192;2023-02-11T13:38:36;96556.41;;;15.17;27.45
36828;BME280;22766;48.042;11.192;2023-02-11T13:41:17;96550.41;;;16.33;25.80
36828;BME280;22766;48.042;11.192;2023-02-11T13:46:25;96539.94;;;17.11;24.13
36828;BME280;22766;48.042;11.192;2023-02-11T13:48:53;96538.72;;;17.57;23.54
36828;BME280;22766;48.042;11.192;2023-02-11T13:51:37;96538.66;;;17.91;23.10
36828;BME280;22766;48.042;11.192;2023-02-11T13:54:06;96546.06;;;17.61;23.44
36828;BME280;22766;48.042;11.192;2023-02-11T13:56:40;96555.56;;;19.09;22.53
36828;BME280;22766;48.042;11.192;2023-02-11T14:08:19;96539.16;;;15.16;25.84
36828;BME280;22766;48.042;11.192;2023-02-11T14:11:09;96549.59;;;13.63;27.49
36828;BME280;22766;48.042;11.192;2023-02-11T14:14:26;96545.50;;;13.00;28.92
36828;BME280;22766;48.042;11.192;2023-02-11T14:19:45;96543.94;;;11.41;31.23
36828;BME280;22766;48.042;11.192;2023-02-11T14:22:16;96549.94;;;10.64;31.93
36828;BME280;22766;48.042;11.192;2023-02-11T14:25:03;96543.41;;;10.47;33.65
36828;BME280;22766;48.042;11.192;2023-02-11T14:30:12;96534.81;;;10.35;32.26
36828;BME280;22766;48.042;11.192;2023-02-11T14:33:03;96531.78;;;10.30;32.36
36828;BME280;22766;48.042;11.192;2023-02-11T14:35:48;96540.56;;;10.39;32.99
36828;BME280;22766;48.042;11.192;2023-02-11T14:41:23;96549.94;;;10.05;34.04
36828;BME280;22766;48.042;11.192;2023-02-11T14:43:58;96553.13;;;10.32;34.84
36828;BME280;22766;48.042;11.192;2023-02-11T14:46:27;96553.69;;;10.60;33.84
36828;BME280;22766;48.042;11.192;2023-02-11T14:49:01;96555.81;;;10.20;35.10
36828;BME280;22766;48.042;11.192;2023-02-11T14:51:38;96547.03;;;9.86;35.07
36828;BME280;22766;48.042;11.192;2023-02-11T14:54:18;96545.44;;;9.73;36.13
36828;BME280;22766;48.042;11.192;2023-02-11T14:57:05;96558.16;;;9.39;36.72
36828;BME280;22766;48.042;11.192;2023-02-11T14:59:32;96556.84;;;9.21;37.56
36828;BME280;22766;48.042;11.192;2023-02-11T15:01:59;96557.69;;;8.97;37.22
36828;BME280;22766;48.042;11.192;2023-02-11T15:04:27;96560.38;;;9.08;37.64
36828;BME280;22766;48.042;11.192;2023-02-11T15:06:56;96558.00;;;8.80;37.79
36828;BME280;22766;48.042;11.192;2023-02-11T15:09:44;96562.44;;;8.65;38.90
36828;BME280;22766;48.042;11.192;2023-02-11T15:12:24;96562.53;;;8.51;39.35
36828;BME280;22766;48.042;11.192;2023-02-11T15:14:54;96571.09;;;8.52;39.75
36828;BME280;22766;48.042;11.192;2023-02-11T15:17:24;96579.03;;;8.61;40.25
36828;BME280;22766;48.042;11.192;2023-02-11T15:19:54;96574.19;;;8.57;40.32
36828;BME280;22766;48.042;11.192;2023-02-11T15:22:27;96579.53;;;8.41;41.02